sensor_id;sensor_type;location;lat;lon;timestamp;P1;durP1;ratioP1;P2;durP2;ratioP2
32523;SDS011;18965;52.242;20.886;2023-05-23T00:00:59;15.60;;;13.85;;
32523;SDS011;18965;52.242;20.886;2023-05-23T00:03:26;15.63;;;13.93;;
32523;SDS011;18965;52.242;20.886;2023-05-23T00:05:53;16.80;;;15.10;;
32523;SDS011;18965;52.242;20.886;2023-05-23T00:08:21;19.52;;;13.18;;
32523;SDS011;18965;52.242;20.886;2023-05-23T00:10:48;15.73;;;11.07;;
32523;SDS011;18965;52.242;20.886;2023-05-23T00:13:14;13.82;;;11.75;;
32523;SDS011;18965;52.242;20.886;2023-05-23T00:15:42;14.55;;;12.82;;
32523;SDS011;18965;52.242;20.886;2023-05-23T00:18:09;15.85;;;12.10;;
32523;SDS011;18965;52.242;20.886;2023-05-23T00:20:36;17.00;;;13.40;;
32523;SDS011;18965;52.242;20.886;2023-05-23T00:23:08;16.10;;;14.48;;
32523;SDS011;18965;52.242;20.886;2023-05-23T00:25:35;17.05;;;14.80;;
32523;SDS011;18965;52.242;20.886;2023-05-23T00:28:02;21.58;;;18.50;;
32523;SDS011;18965;52.242;20.886;2023-05-23T00:30:30;22.00;;;19.75;;
32523;SDS011;18965;52.242;20.886;2023-05-23T00:32:57;25.17;;;22.88;;
32523;SDS011;18965;52.242;20.886;2023-05-23T00:35:24;30.80;;;27.90;;
32523;SDS011;18965;52.242;20.886;2023-05-23T00:37:51;33.70;;;30.45;;
32523;SDS011;18965;52.242;20.886;2023-05-23T00:40:18;35.70;;;32.15;;
32523;SDS011;18965;52.242;20.886;2023-05-23T00:42:45;46.72;;;42.30;;
32523;SDS011;18965;52.242;20.886;2023-05-23T00:45:12;40.38;;;36.42;;
32523;SDS011;18965;52.242;20.886;2023-05-23T00:47:41;42.92;;;38.75;;
32523;SDS011;18965;52.242;20.886;2023-05-23T00:50:08;49.85;;;44.88;;
32523;SDS011;18965;52.242;20.886;2023-05-23T00:52:37;53.30;;;48.00;;
32523;SDS011;18965;52.242;20.886;2023-05-23T00:55:05;48.83;;;44.05;;
32523;SDS011;18965;52.242;20.886;2023-05-23T00:57:32;47.28;;;42.85;;
32523;SDS011;18965;52.242;20.886;2023-05-23T01:00:07;48.88;;;44.17;;
32523;SDS011;18965;52.242;20.886;2023-05-23T01:02:35;44.25;;;40.28;;
32523;SDS011;18965;52.242;20.886;2023-05-23T01:05:05;41.53;;;37.42;;
32523;SDS011;18965;52.242;20.886;2023-05-23T01:07:32;46.97;;;42.30;;
32523;SDS011;18965;52.242;20.886;2023-05-23T01:10:00;52.30;;;46.92;;
32523;SDS011;18965;52.242;20.886;2023-05-23T01:12:45;57.92;;;51.53;;
32523;SDS011;18965;52.242;20.886;2023-05-23T01:15:29;51.80;;;46.72;;
32523;SDS011;18965;52.242;20.886;2023-05-23T01:18:06;60.30;;;50.85;;
32523;SDS011;18965;52.242;20.886;2023-05-23T01:21:05;52.53;;;47.05;;
32523;SDS011;18965;52.242;20.886;2023-05-23T01:26:30;67.38;;;56.40;;
32523;SDS011;18965;52.242;20.886;2023-05-23T01:29:55;68.38;;;58.20;;
32523;SDS011;18965;52.242;20.886;2023-05-23T01:32:08;67.20;;;54.90;;
32523;SDS011;18965;52.242;20.886;2023-05-23T01:34:37;76.43;;;58.65;;
32523;SDS011;18965;52.242;20.886;2023-05-23T01:37:11;88.95;;;62.95;;
32523;SDS011;18965;52.242;20.886;2023-05-23T01:39:39;88.60;;;62.72;;
32523;SDS011;18965;52.242;20.886;2023-05-23T01:42:07;98.22;;;64.78;;
32523;SDS011;18965;52.242;20.886;2023-05-23T01:44:33;101.65;;;66.38;;
32523;SDS011;18965;52.242;20.886;2023-05-23T01:47:04;106.15;;;67.95;;
32523;SDS011;18965;52.242;20.886;2023-05-23T01:49:34;106.22;;;67.18;;
32523;SDS011;18965;52.242;20.886;2023-05-23T01:52:02;117.90;;;70.15;;
32523;SDS011;18965;52.242;20.886;2023-05-23T01:54:33;122.07;;;71.00;;
32523;SDS011;18965;52.242;20.886;2023-05-23T01:57:02;123.35;;;70.47;;
32523;SDS011;18965;52.242;20.886;2023-05-23T01:59:29;137.85;;;72.90;;
32523;SDS011;18965;52.242;20.886;2023-05-23T02:01:56;144.77;;;75.00;;
32523;SDS011;18965;52.242;20.886;2023-05-23T02:04:23;141.35;;;74.50;;
32523;SDS011;18965;52.242;20.886;2023-05-23T02:06:49;132.07;;;72.13;;
32523;SDS011;18965;52.242;20.886;2023-05-23T02:09:16;137.00;;;72.63;;
32523;SDS011;18965;52.242;20.886;2023-05-23T02:11:42;136.07;;;72.95;;
32523;SDS011;18965;52.242;20.886;2023-05-23T02:14:10;141.07;;;74.72;;
32523;SDS011;18965;52.242;20.886;2023-05-23T02:16:36;144.80;;;74.70;;
32523;SDS011;18965;52.242;20.886;2023-05-23T02:19:03;145.38;;;74.45;;
32523;SDS011;18965;52.242;20.886;2023-05-23T02:21:30;140.80;;;73.63;;
32523;SDS011;18965;52.242;20.886;2023-05-23T02:23:56;138.15;;;73.82;;
32523;SDS011;18965;52.242;20.886;2023-05-23T02:26:23;146.18;;;76.25;;
32523;SDS011;18965;52.242;20.886;2023-05-23T02:28:49;141.15;;;74.90;;
32523;SDS011;18965;52.242;20.886;2023-05-23T02:31:16;140.88;;;75.22;;
32523;SDS011;18965;52.242;20.886;2023-05-23T02:33:42;146.85;;;76.70;;
32523;SDS011;18965;52.242;20.886;2023-05-23T02:36:09;134.82;;;73.53;;
32523;SDS011;18965;52.242;20.886;2023-05-23T02:38:36;127.60;;;71.30;;
32523;SDS011;18965;52.242;20.886;2023-05-23T02:41:03;122.93;;;71.82;;
32523;SDS011;18965;52.242;20.886;2023-05-23T02:43:29;116.35;;;70.47;;
32523;SDS011;18965;52.242;20.886;2023-05-23T02:45:56;121.00;;;70.00;;
32523;SDS011;18965;52.242;20.886;2023-05-23T02:48:23;115.53;;;70.28;;
32523;SDS011;18965;52.242;20.886;2023-05-23T02:50:49;108.80;;;66.07;;
32523;SDS011;18965;52.242;20.886;2023-05-23T02:53:15;90.55;;;64.25;;
32523;SDS011;18965;52.242;20.886;2023-05-23T02:55:42;85.43;;;63.08;;
32523;SDS011;18965;52.242;20.886;2023-05-23T02:58:09;77.93;;;59.72;;
32523;SDS011;18965;52.242;20.886;2023-05-23T03:00:36;71.88;;;58.40;;
32523;SDS011;18965;52.242;20.886;2023-05-23T03:03:02;65.03;;;55.40;;
32523;SDS011;18965;52.242;20.886;2023-05-23T03:05:29;57.28;;;51.08;;
32523;SDS011;18965;52.242;20.886;2023-05-23T03:07:55;59.20;;;51.03;;
32523;SDS011;18965;52.242;20.886;2023-05-23T03:10:22;49.50;;;44.60;;
32523;SDS011;18965;52.242;20.886;2023-05-23T03:12:49;49.10;;;44.03;;
32523;SDS011;18965;52.242;20.886;2023-05-23T03:15:15;48.60;;;43.95;;
32523;SDS011;18965;52.242;20.886;2023-05-23T03:17:42;44.88;;;40.58;;
32523;SDS011;18965;52.242;20.886;2023-05-23T03:20:08;47.92;;;43.38;;
32523;SDS011;18965;52.242;20.886;2023-05-23T03:22:35;45.13;;;41.08;;
32523;SDS011;18965;52.242;20.886;2023-05-23T03:25:02;33.13;;;30.27;;
32523;SDS011;18965;52.242;20.886;2023-05-23T03:27:29;30.35;;;27.50;;
32523;SDS011;18965;52.242;20.886;2023-05-23T03:29:56;26.02;;;23.42;;
32523;SDS011;18965;52.242;20.886;2023-05-23T03:32:22;22.60;;;20.63;;
32523;SDS011;18965;52.242;20.886;2023-05-23T03:34:49;20.65;;;18.13;;
32523;SDS011;18965;52.242;20.886;2023-05-23T03:37:15;15.57;;;13.95;;
32523;SDS011;18965;52.242;20.886;2023-05-23T03:39:42;19.30;;;13.82;;
32523;SDS011;18965;52.242;20.886;2023-05-23T03:42:08;15.85;;;11.20;;
32523;SDS011;18965;52.242;20.886;2023-05-23T03:44:34;16.98;;;11.63;;
32523;SDS011;18965;52.242;20.886;2023-05-23T03:47:01;13.27;;;10.27;;
32523;SDS011;18965;52.242;20.886;2023-05-23T03:49:27;15.90;;;9.07;;
32523;SDS011;18965;52.242;20.886;2023-05-23T03:51:53;30.63;;;10.48;;
32523;SDS011;18965;52.242;20.886;2023-05-23T03:54:20;10.98;;;7.05;;
32523;SDS011;18965;52.242;20.886;2023-05-23T03:56:47;14.82;;;7.25;;
32523;SDS011;18965;52.242;20.886;2023-05-23T03:59:14;11.40;;;7.80;;
32523;SDS011;18965;52.242;20.886;2023-05-23T04:01:40;15.27;;;6.93;;
32523;SDS011;18965;52.242;20.886;2023-05-23T04:04:07;13.15;;;6.90;;
32523;SDS011;18965;52.242;20.886;2023-05-23T04:06:34;11.85;;;6.35;;
32523;SDS011;18965;52.242;20.886;2023-05-23T04:09:01;15.13;;;6.68;;
32523;SDS011;18965;52.242;20.886;2023-05-23T04:11:27;14.50;;;6.75;;
32523;SDS011;18965;52.242;20.886;2023-05-23T04:13:54;11.45;;;5.93;;
32523;SDS011;18965;52.242;20.886;2023-05-23T04:16:21;10.88;;;6.18;;
32523;SDS011;18965;52.242;20.886;2023-05-23T04:18:49;11.38;;;6.00;;
32523;SDS011;18965;52.242;20.886;2023-05-23T04:21:15;13.23;;;6.10;;
32523;SDS011;18965;52.242;20.886;2023-05-23T04:23:42;11.15;;;6.43;;
32523;SDS011;18965;52.242;20.886;2023-05-23T04:26:09;10.15;;;5.50;;
32523;SDS011;18965;52.242;20.886;2023-05-23T04:28:35;30.73;;;7.35;;
32523;SDS011;18965;52.242;20.886;2023-05-23T04:31:04;17.65;;;6.20;;
32523;SDS011;18965;52.242;20.886;2023-05-23T04:33:30;12.50;;;5.75;;
32523;SDS011;18965;52.242;20.886;2023-05-23T04:35:58;15.40;;;5.82;;
32523;SDS011;18965;52.242;20.886;2023-05-23T04:38:24;9.50;;;4.75;;
32523;SDS011;18965;52.242;20.886;2023-05-23T04:40:52;9.80;;;5.95;;
32523;SDS011;18965;52.242;20.886;2023-05-23T04:43:19;8.20;;;5.63;;
32523;SDS011;18965;52.242;20.886;2023-05-23T04:45:46;10.63;;;5.63;;
32523;SDS011;18965;52.242;20.886;2023-05-23T04:48:14;11.70;;;5.45;;
32523;SDS011;18965;52.242;20.886;2023-05-23T04:54:03;9.88;;;5.43;;
32523;SDS011;18965;52.242;20.886;2023-05-23T04:56:30;13.23;;;5.88;;
32523;SDS011;18965;52.242;20.886;2023-05-23T04:58:57;13.02;;;5.95;;
32523;SDS011;18965;52.242;20.886;2023-05-23T05:01:23;8.35;;;4.88;;
32523;SDS011;18965;52.242;20.886;2023-05-23T05:03:50;11.38;;;5.03;;
32523;SDS011;18965;52.242;20.886;2023-05-23T05:06:17;9.68;;;5.13;;
32523;SDS011;18965;52.242;20.886;2023-05-23T05:08:44;13.75;;;5.47;;
32523;SDS011;18965;52.242;20.886;2023-05-23T05:11:11;16.25;;;5.60;;
32523;SDS011;18965;52.242;20.886;2023-05-23T05:13:37;8.35;;;5.18;;
32523;SDS011;18965;52.242;20.886;2023-05-23T05:16:03;8.15;;;4.90;;
32523;SDS011;18965;52.242;20.886;2023-05-23T05:18:30;9.38;;;5.63;;
32523;SDS011;18965;52.242;20.886;2023-05-23T05:20:56;7.82;;;4.90;;
32523;SDS011;18965;52.242;20.886;2023-05-23T05:23:24;11.43;;;4.47;;
32523;SDS011;18965;52.242;20.886;2023-05-23T05:25:55;8.10;;;4.75;;
32523;SDS011;18965;52.242;20.886;2023-05-23T05:28:22;14.55;;;5.13;;
32523;SDS011;18965;52.242;20.886;2023-05-23T05:30:48;10.70;;;4.65;;
32523;SDS011;18965;52.242;20.886;2023-05-23T05:33:18;8.35;;;4.50;;
32523;SDS011;18965;52.242;20.886;2023-05-23T05:35:49;8.05;;;4.68;;
32523;SDS011;18965;52.242;20.886;2023-05-23T05:38:16;8.45;;;4.65;;
32523;SDS011;18965;52.242;20.886;2023-05-23T05:44:06;8.50;;;4.15;;
32523;SDS011;18965;52.242;20.886;2023-05-23T05:46:33;19.10;;;5.20;;
32523;SDS011;18965;52.242;20.886;2023-05-23T05:49:00;9.45;;;4.70;;
32523;SDS011;18965;52.242;20.886;2023-05-23T05:51:27;10.38;;;4.03;;
32523;SDS011;18965;52.242;20.886;2023-05-23T05:53:53;5.78;;;4.20;;
32523;SDS011;18965;52.242;20.886;2023-05-23T05:56:20;5.75;;;3.50;;
32523;SDS011;18965;52.242;20.886;2023-05-23T05:58:47;7.03;;;4.13;;
32523;SDS011;18965;52.242;20.886;2023-05-23T06:01:14;12.48;;;4.30;;
32523;SDS011;18965;52.242;20.886;2023-05-23T06:03:41;10.07;;;3.80;;
32523;SDS011;18965;52.242;20.886;2023-05-23T06:06:07;15.32;;;4.45;;
32523;SDS011;18965;52.242;20.886;2023-05-23T06:08:34;9.43;;;3.72;;
32523;SDS011;18965;52.242;20.886;2023-05-23T06:11:01;10.00;;;3.72;;
32523;SDS011;18965;52.242;20.886;2023-05-23T06:13:27;11.43;;;3.83;;
32523;SDS011;18965;52.242;20.886;2023-05-23T06:15:54;8.73;;;3.58;;
32523;SDS011;18965;52.242;20.886;2023-05-23T06:18:21;6.70;;;3.47;;
32523;SDS011;18965;52.242;20.886;2023-05-23T06:20:47;6.68;;;3.38;;
32523;SDS011;18965;52.242;20.886;2023-05-23T06:23:15;8.65;;;3.40;;
32523;SDS011;18965;52.242;20.886;2023-05-23T06:25:41;5.90;;;3.10;;
32523;SDS011;18965;52.242;20.886;2023-05-23T06:28:08;8.85;;;3.47;;
32523;SDS011;18965;52.242;20.886;2023-05-23T06:30:35;11.18;;;3.72;;
32523;SDS011;18965;52.242;20.886;2023-05-23T06:33:02;10.35;;;3.78;;
32523;SDS011;18965;52.242;20.886;2023-05-23T06:35:29;16.38;;;4.40;;
32523;SDS011;18965;52.242;20.886;2023-05-23T06:37:56;7.15;;;3.42;;
32523;SDS011;18965;52.242;20.886;2023-05-23T06:40:23;10.90;;;3.70;;
32523;SDS011;18965;52.242;20.886;2023-05-23T06:42:49;5.28;;;3.10;;
32523;SDS011;18965;52.242;20.886;2023-05-23T06:45:16;7.30;;;3.22;;
32523;SDS011;18965;52.242;20.886;2023-05-23T06:47:42;8.98;;;3.20;;
32523;SDS011;18965;52.242;20.886;2023-05-23T06:50:09;8.63;;;3.33;;
32523;SDS011;18965;52.242;20.886;2023-05-23T06:52:36;8.27;;;3.40;;
32523;SDS011;18965;52.242;20.886;2023-05-23T06:55:02;9.07;;;3.30;;
32523;SDS011;18965;52.242;20.886;2023-05-23T06:57:29;7.03;;;3.53;;
32523;SDS011;18965;52.242;20.886;2023-05-23T06:59:55;7.28;;;3.05;;
32523;SDS011;18965;52.242;20.886;2023-05-23T07:02:21;5.35;;;3.35;;
32523;SDS011;18965;52.242;20.886;2023-05-23T07:04:48;11.80;;;3.20;;
32523;SDS011;18965;52.242;20.886;2023-05-23T07:07:15;12.02;;;4.22;;
32523;SDS011;18965;52.242;20.886;2023-05-23T07:09:42;6.82;;;3.13;;
32523;SDS011;18965;52.242;20.886;2023-05-23T07:12:08;16.60;;;4.00;;
32523;SDS011;18965;52.242;20.886;2023-05-23T07:14:35;8.55;;;3.10;;
32523;SDS011;18965;52.242;20.886;2023-05-23T07:17:02;3.75;;;2.75;;
32523;SDS011;18965;52.242;20.886;2023-05-23T07:19:29;8.98;;;3.22;;
32523;SDS011;18965;52.242;20.886;2023-05-23T07:21:55;4.32;;;2.78;;
32523;SDS011;18965;52.242;20.886;2023-05-23T07:24:22;5.47;;;3.13;;
32523;SDS011;18965;52.242;20.886;2023-05-23T07:26:49;15.32;;;3.70;;
32523;SDS011;18965;52.242;20.886;2023-05-23T07:29:15;7.22;;;2.90;;
32523;SDS011;18965;52.242;20.886;2023-05-23T07:31:42;4.55;;;2.80;;
32523;SDS011;18965;52.242;20.886;2023-05-23T07:34:08;7.38;;;3.20;;
32523;SDS011;18965;52.242;20.886;2023-05-23T07:36:35;5.82;;;2.80;;
32523;SDS011;18965;52.242;20.886;2023-05-23T07:39:05;7.45;;;3.25;;
32523;SDS011;18965;52.242;20.886;2023-05-23T07:41:31;10.27;;;3.13;;
32523;SDS011;18965;52.242;20.886;2023-05-23T07:43:58;4.50;;;2.80;;
32523;SDS011;18965;52.242;20.886;2023-05-23T07:46:25;6.25;;;2.70;;
32523;SDS011;18965;52.242;20.886;2023-05-23T07:48:51;4.18;;;2.83;;
32523;SDS011;18965;52.242;20.886;2023-05-23T07:51:18;5.10;;;2.85;;
32523;SDS011;18965;52.242;20.886;2023-05-23T07:53:45;5.32;;;2.50;;
32523;SDS011;18965;52.242;20.886;2023-05-23T07:56:12;5.50;;;3.08;;
32523;SDS011;18965;52.242;20.886;2023-05-23T07:58:38;11.13;;;3.78;;
32523;SDS011;18965;52.242;20.886;2023-05-23T08:01:05;22.98;;;4.30;;
32523;SDS011;18965;52.242;20.886;2023-05-23T08:03:32;12.52;;;3.33;;
32523;SDS011;18965;52.242;20.886;2023-05-23T08:05:58;10.15;;;3.28;;
32523;SDS011;18965;52.242;20.886;2023-05-23T08:08:25;5.22;;;2.75;;
32523;SDS011;18965;52.242;20.886;2023-05-23T08:10:51;8.55;;;3.28;;
32523;SDS011;18965;52.242;20.886;2023-05-23T08:13:17;5.68;;;2.60;;
32523;SDS011;18965;52.242;20.886;2023-05-23T08:15:44;5.45;;;2.65;;
32523;SDS011;18965;52.242;20.886;2023-05-23T08:18:10;7.28;;;2.80;;
32523;SDS011;18965;52.242;20.886;2023-05-23T08:20:37;4.25;;;2.80;;
32523;SDS011;18965;52.242;20.886;2023-05-23T08:23:03;5.25;;;2.80;;
32523;SDS011;18965;52.242;20.886;2023-05-23T08:25:29;8.50;;;2.80;;
32523;SDS011;18965;52.242;20.886;2023-05-23T08:27:59;7.82;;;2.85;;
32523;SDS011;18965;52.242;20.886;2023-05-23T08:32:54;5.07;;;2.80;;
32523;SDS011;18965;52.242;20.886;2023-05-23T08:35:22;6.68;;;2.75;;
32523;SDS011;18965;52.242;20.886;2023-05-23T08:37:48;6.95;;;3.08;;
32523;SDS011;18965;52.242;20.886;2023-05-23T08:40:17;5.05;;;2.97;;
32523;SDS011;18965;52.242;20.886;2023-05-23T08:42:49;4.30;;;2.75;;
32523;SDS011;18965;52.242;20.886;2023-05-23T08:45:16;6.35;;;3.03;;
32523;SDS011;18965;52.242;20.886;2023-05-23T08:47:44;7.78;;;3.03;;
32523;SDS011;18965;52.242;20.886;2023-05-23T08:53:33;4.70;;;2.90;;
32523;SDS011;18965;52.242;20.886;2023-05-23T08:58:29;21.10;;;4.15;;
32523;SDS011;18965;52.242;20.886;2023-05-23T09:00:58;3.65;;;2.67;;
32523;SDS011;18965;52.242;20.886;2023-05-23T09:03:25;9.50;;;3.53;;
32523;SDS011;18965;52.242;20.886;2023-05-23T09:05:54;4.60;;;2.90;;
32523;SDS011;18965;52.242;20.886;2023-05-23T09:08:22;5.35;;;2.80;;
32523;SDS011;18965;52.242;20.886;2023-05-23T11:15:50;5.63;;;2.85;;
32523;SDS011;18965;52.242;20.886;2023-05-23T11:18:21;4.65;;;2.50;;
32523;SDS011;18965;52.242;20.886;2023-05-23T11:20:52;5.95;;;2.60;;
32523;SDS011;18965;52.242;20.886;2023-05-23T11:23:20;4.10;;;2.30;;
32523;SDS011;18965;52.242;20.886;2023-05-23T11:25:47;7.75;;;3.05;;
32523;SDS011;18965;52.242;20.886;2023-05-23T11:28:16;3.70;;;2.42;;
32523;SDS011;18965;52.242;20.886;2023-05-23T11:34:06;6.28;;;2.72;;
32523;SDS011;18965;52.242;20.886;2023-05-23T11:36:32;5.53;;;2.72;;
32523;SDS011;18965;52.242;20.886;2023-05-23T11:39:02;7.80;;;3.13;;
32523;SDS011;18965;52.242;20.886;2023-05-23T11:41:30;3.70;;;2.72;;
32523;SDS011;18965;52.242;20.886;2023-05-23T11:43:58;6.28;;;2.97;;
32523;SDS011;18965;52.242;20.886;2023-05-23T11:53:26;6.38;;;2.58;;
32523;SDS011;18965;52.242;20.886;2023-05-23T11:55:54;5.10;;;2.78;;
32523;SDS011;18965;52.242;20.886;2023-05-23T11:58:27;5.90;;;2.72;;
32523;SDS011;18965;52.242;20.886;2023-05-23T12:01:00;8.60;;;3.00;;
32523;SDS011;18965;52.242;20.886;2023-05-23T12:03:28;4.82;;;2.50;;
32523;SDS011;18965;52.242;20.886;2023-05-23T12:05:56;6.45;;;3.33;;
32523;SDS011;18965;52.242;20.886;2023-05-23T12:08:23;4.22;;;2.60;;
32523;SDS011;18965;52.242;20.886;2023-05-23T12:10:51;7.70;;;3.00;;
32523;SDS011;18965;52.242;20.886;2023-05-23T12:13:28;5.03;;;3.10;;
32523;SDS011;18965;52.242;20.886;2023-05-23T12:15:55;4.40;;;2.50;;
32523;SDS011;18965;52.242;20.886;2023-05-23T12:18:26;5.57;;;2.53;;
32523;SDS011;18965;52.242;20.886;2023-05-23T12:20:54;6.38;;;2.90;;
32523;SDS011;18965;52.242;20.886;2023-05-23T12:23:25;5.72;;;2.90;;
32523;SDS011;18965;52.242;20.886;2023-05-23T12:25:54;6.18;;;2.70;;
32523;SDS011;18965;52.242;20.886;2023-05-23T12:28:33;4.57;;;2.78;;
32523;SDS011;18965;52.242;20.886;2023-05-23T12:31:10;4.80;;;2.67;;
32523;SDS011;18965;52.242;20.886;2023-05-23T12:33:38;7.43;;;2.97;;
32523;SDS011;18965;52.242;20.886;2023-05-23T12:36:08;7.90;;;3.22;;
32523;SDS011;18965;52.242;20.886;2023-05-23T12:38:37;4.30;;;2.90;;
32523;SDS011;18965;52.242;20.886;2023-05-23T12:41:14;4.95;;;2.63;;
32523;SDS011;18965;52.242;20.886;2023-05-23T12:43:54;6.23;;;3.10;;
32523;SDS011;18965;52.242;20.886;2023-05-23T13:00:55;5.85;;;3.00;;
32523;SDS011;18965;52.242;20.886;2023-05-23T13:08:07;5.32;;;3.03;;
32523;SDS011;18965;52.242;20.886;2023-05-23T13:54:49;3.97;;;2.97;;
32523;SDS011;18965;52.242;20.886;2023-05-23T13:57:16;5.68;;;3.10;;
32523;SDS011;18965;52.242;20.886;2023-05-23T13:59:42;8.23;;;3.25;;
32523;SDS011;18965;52.242;20.886;2023-05-23T14:02:08;6.65;;;3.58;;
32523;SDS011;18965;52.242;20.886;2023-05-23T14:04:35;6.60;;;3.20;;
32523;SDS011;18965;52.242;20.886;2023-05-23T14:07:01;10.98;;;3.40;;
32523;SDS011;18965;52.242;20.886;2023-05-23T14:09:28;5.65;;;3.38;;
32523;SDS011;18965;52.242;20.886;2023-05-23T14:11:55;29.85;;;5.88;;
32523;SDS011;18965;52.242;20.886;2023-05-23T14:14:22;22.48;;;5.07;;
32523;SDS011;18965;52.242;20.886;2023-05-23T14:16:49;20.73;;;5.22;;
32523;SDS011;18965;52.242;20.886;2023-05-23T14:19:16;14.73;;;4.10;;
32523;SDS011;18965;52.242;20.886;2023-05-23T14:21:43;20.40;;;5.05;;
32523;SDS011;18965;52.242;20.886;2023-05-23T14:24:10;13.80;;;4.38;;
32523;SDS011;18965;52.242;20.886;2023-05-23T14:26:36;6.55;;;3.53;;
32523;SDS011;18965;52.242;20.886;2023-05-23T14:32:25;15.48;;;4.63;;
32523;SDS011;18965;52.242;20.886;2023-05-23T14:34:51;14.30;;;3.95;;
32523;SDS011;18965;52.242;20.886;2023-05-23T14:37:19;3.88;;;3.33;;
32523;SDS011;18965;52.242;20.886;2023-05-23T14:39:45;6.25;;;3.80;;
32523;SDS011;18965;52.242;20.886;2023-05-23T14:42:12;6.43;;;3.47;;
32523;SDS011;18965;52.242;20.886;2023-05-23T14:44:38;7.60;;;3.80;;
32523;SDS011;18965;52.242;20.886;2023-05-23T14:47:05;4.25;;;3.45;;
32523;SDS011;18965;52.242;20.886;2023-05-23T14:49:31;5.90;;;3.50;;
32523;SDS011;18965;52.242;20.886;2023-05-23T14:51:58;16.15;;;4.68;;
32523;SDS011;18965;52.242;20.886;2023-05-23T14:54:24;10.50;;;3.97;;
32523;SDS011;18965;52.242;20.886;2023-05-23T14:56:51;22.33;;;5.32;;
32523;SDS011;18965;52.242;20.886;2023-05-23T14:59:18;14.88;;;4.93;;
32523;SDS011;18965;52.242;20.886;2023-05-23T15:01:46;18.27;;;4.65;;
32523;SDS011;18965;52.242;20.886;2023-05-23T15:04:12;11.48;;;4.35;;
32523;SDS011;18965;52.242;20.886;2023-05-23T15:06:38;6.80;;;3.42;;
32523;SDS011;18965;52.242;20.886;2023-05-23T15:09:06;9.45;;;3.72;;
32523;SDS011;18965;52.242;20.886;2023-05-23T15:11:34;5.43;;;3.65;;
32523;SDS011;18965;52.242;20.886;2023-05-23T15:14:03;7.38;;;3.80;;
32523;SDS011;18965;52.242;20.886;2023-05-23T15:16:29;7.13;;;3.97;;
32523;SDS011;18965;52.242;20.886;2023-05-23T15:18:58;8.95;;;4.00;;
32523;SDS011;18965;52.242;20.886;2023-05-23T15:21:24;5.07;;;3.70;;
32523;SDS011;18965;52.242;20.886;2023-05-23T15:23:51;5.88;;;3.70;;
32523;SDS011;18965;52.242;20.886;2023-05-23T15:26:18;6.82;;;4.03;;
32523;SDS011;18965;52.242;20.886;2023-05-23T15:28:45;7.57;;;3.83;;
32523;SDS011;18965;52.242;20.886;2023-05-23T15:31:12;7.43;;;3.45;;
32523;SDS011;18965;52.242;20.886;2023-05-23T15:33:38;25.75;;;6.00;;
32523;SDS011;18965;52.242;20.886;2023-05-23T15:36:05;15.52;;;4.82;;
32523;SDS011;18965;52.242;20.886;2023-05-23T15:38:32;12.45;;;4.35;;
32523;SDS011;18965;52.242;20.886;2023-05-23T15:40:59;11.90;;;4.43;;
32523;SDS011;18965;52.242;20.886;2023-05-23T15:43:26;6.00;;;3.65;;
32523;SDS011;18965;52.242;20.886;2023-05-23T15:45:52;7.32;;;3.60;;
32523;SDS011;18965;52.242;20.886;2023-05-23T15:48:18;7.18;;;3.80;;
32523;SDS011;18965;52.242;20.886;2023-05-23T15:50:45;5.95;;;4.03;;
32523;SDS011;18965;52.242;20.886;2023-05-23T15:53:12;6.68;;;3.63;;
32523;SDS011;18965;52.242;20.886;2023-05-23T15:55:39;10.68;;;3.97;;
32523;SDS011;18965;52.242;20.886;2023-05-23T15:58:06;6.15;;;3.92;;
32523;SDS011;18965;52.242;20.886;2023-05-23T16:00:33;6.75;;;3.92;;
32523;SDS011;18965;52.242;20.886;2023-05-23T16:02:59;8.18;;;3.67;;
32523;SDS011;18965;52.242;20.886;2023-05-23T16:05:26;6.38;;;3.75;;
32523;SDS011;18965;52.242;20.886;2023-05-23T16:07:53;6.10;;;3.65;;
32523;SDS011;18965;52.242;20.886;2023-05-23T16:10:20;7.72;;;3.67;;
32523;SDS011;18965;52.242;20.886;2023-05-23T16:12:49;16.15;;;4.57;;
32523;SDS011;18965;52.242;20.886;2023-05-23T16:15:15;20.98;;;5.82;;
32523;SDS011;18965;52.242;20.886;2023-05-23T16:17:42;7.57;;;3.70;;
32523;SDS011;18965;52.242;20.886;2023-05-23T16:20:08;8.75;;;4.07;;
32523;SDS011;18965;52.242;20.886;2023-05-23T16:22:35;6.25;;;3.97;;
32523;SDS011;18965;52.242;20.886;2023-05-23T16:25:02;9.40;;;4.07;;
32523;SDS011;18965;52.242;20.886;2023-05-23T16:27:30;6.47;;;4.20;;
32523;SDS011;18965;52.242;20.886;2023-05-23T16:29:56;6.55;;;4.25;;
32523;SDS011;18965;52.242;20.886;2023-05-23T16:32:23;7.40;;;4.22;;
32523;SDS011;18965;52.242;20.886;2023-05-23T16:34:50;6.18;;;4.10;;
32523;SDS011;18965;52.242;20.886;2023-05-23T16:37:16;4.80;;;3.35;;
32523;SDS011;18965;52.242;20.886;2023-05-23T16:39:44;7.13;;;3.70;;
32523;SDS011;18965;52.242;20.886;2023-05-23T16:42:10;8.40;;;4.03;;
32523;SDS011;18965;52.242;20.886;2023-05-23T16:44:37;8.75;;;3.90;;
32523;SDS011;18965;52.242;20.886;2023-05-23T16:47:04;13.27;;;4.72;;
32523;SDS011;18965;52.242;20.886;2023-05-23T16:49:30;16.38;;;5.05;;
32523;SDS011;18965;52.242;20.886;2023-05-23T16:51:56;5.88;;;3.78;;
32523;SDS011;18965;52.242;20.886;2023-05-23T16:54:22;8.05;;;3.72;;
32523;SDS011;18965;52.242;20.886;2023-05-23T16:56:50;6.60;;;4.00;;
32523;SDS011;18965;52.242;20.886;2023-05-23T16:59:16;9.25;;;4.13;;
32523;SDS011;18965;52.242;20.886;2023-05-23T17:01:43;6.32;;;4.20;;
32523;SDS011;18965;52.242;20.886;2023-05-23T17:04:09;6.72;;;3.80;;
32523;SDS011;18965;52.242;20.886;2023-05-23T17:06:36;7.70;;;3.97;;
32523;SDS011;18965;52.242;20.886;2023-05-23T17:09:03;7.60;;;4.20;;
32523;SDS011;18965;52.242;20.886;2023-05-23T17:11:30;5.60;;;4.07;;
32523;SDS011;18965;52.242;20.886;2023-05-23T17:13:57;8.27;;;4.10;;
32523;SDS011;18965;52.242;20.886;2023-05-23T17:16:24;7.38;;;3.80;;
32523;SDS011;18965;52.242;20.886;2023-05-23T17:18:51;7.88;;;4.05;;
32523;SDS011;18965;52.242;20.886;2023-05-23T17:21:17;7.22;;;4.03;;
32523;SDS011;18965;52.242;20.886;2023-05-23T17:23:45;11.60;;;4.45;;
32523;SDS011;18965;52.242;20.886;2023-05-23T17:26:11;9.55;;;4.07;;
32523;SDS011;18965;52.242;20.886;2023-05-23T17:28:38;8.70;;;4.18;;
32523;SDS011;18965;52.242;20.886;2023-05-23T17:31:06;12.18;;;4.20;;
32523;SDS011;18965;52.242;20.886;2023-05-23T17:33:33;5.78;;;3.85;;
32523;SDS011;18965;52.242;20.886;2023-05-23T17:36:00;7.88;;;4.32;;
32523;SDS011;18965;52.242;20.886;2023-05-23T17:38:26;9.50;;;4.50;;
32523;SDS011;18965;52.242;20.886;2023-05-23T17:40:52;10.45;;;4.47;;
32523;SDS011;18965;52.242;20.886;2023-05-23T17:43:19;9.30;;;4.60;;
32523;SDS011;18965;52.242;20.886;2023-05-23T17:45:46;9.35;;;4.32;;
32523;SDS011;18965;52.242;20.886;2023-05-23T17:48:16;11.25;;;5.10;;
32523;SDS011;18965;52.242;20.886;2023-05-23T17:50:43;8.98;;;4.40;;
32523;SDS011;18965;52.242;20.886;2023-05-23T17:53:10;17.67;;;5.43;;
32523;SDS011;18965;52.242;20.886;2023-05-23T17:55:39;12.10;;;4.28;;
32523;SDS011;18965;52.242;20.886;2023-05-23T17:58:05;7.43;;;4.35;;
32523;SDS011;18965;52.242;20.886;2023-05-23T18:00:32;10.30;;;4.72;;
32523;SDS011;18965;52.242;20.886;2023-05-23T18:02:59;6.22;;;4.18;;
32523;SDS011;18965;52.242;20.886;2023-05-23T18:05:26;10.95;;;4.82;;